Time;durP1;ratioP1;P1;durP2;ratioP2;P2;SDS_P1;SDS_P2;PMS_P1;PMS_P2;Temp;Humidity;BMP_temperature;BMP_pressure;BME280_temperature;BME280_humidity;BME280_pressure;Samples;Min_cycle;Max_cycle;Signal;HPM_P1;HPM_P2
2023/06/23 00:00:29;;;;;;;0.50;0.50;;;17.10;99.90;;;;;;5114090;28;20084;-71
2023/06/23 00:02:55;;;;;;;0.40;0.40;;;17.10;99.90;;;;;;5113885;28;20043;-72
2023/06/23 00:05:21;;;;;;;0.70;0.70;;;17.10;99.90;;;;;;5113278;28;20142;-71
2023/06/23 00:07:47;;;;;;;0.40;0.40;;;17.10;99.90;;;;;;5113800;28;20098;-72
2023/06/23 00:10:13;;;;;;;0.40;0.40;;;17.10;99.90;;;;;;5113660;28;20061;-72
2023/06/23 00:12:42;;;;;;;0.40;0.40;;;17.10;99.90;;;;;;5112507;28;20127;-71
2023/06/23 00:15:10;;;;;;;0.40;0.40;;;17.10;99.90;;;;;;5113578;28;20483;-72
2023/06/23 00:17:36;;;;;;;0.45;0.45;;;17.10;99.90;;;;;;5113382;28;20054;-72
2023/06/23 00:20:07;;;;;;;0.50;0.50;;;17.10;99.90;;;;;;5113607;28;20104;-71
2023/06/23 00:22:33;;;;;;;0.40;0.40;;;17.10;99.90;;;;;;5113713;28;20390;-71
2023/06/23 00:24:59;;;;;;;0.30;0.30;;;17.20;99.90;;;;;;5116326;28;20035;-71
2023/06/23 00:27:24;;;;;;;0.37;0.37;;;17.10;99.90;;;;;;5117536;28;20031;-72
2023/06/23 00:29:50;;;;;;;0.30;0.30;;;17.10;99.90;;;;;;5117414;28;20122;-71
2023/06/23 00:32:16;;;;;;;0.60;0.60;;;17.10;99.90;;;;;;5116031;28;20366;-72
2023/06/23 00:34:41;;;;;;;0.43;0.43;;;17.10;99.90;;;;;;5116897;28;20084;-72
2023/06/23 00:37:08;;;;;;;0.40;0.40;;;17.10;99.90;;;;;;5117063;28;20039;-72
2023/06/23 00:39:34;;;;;;;1.33;0.82;;;17.10;99.90;;;;;;5117020;28;20039;-72
2023/06/23 00:42:04;;;;;;;0.40;0.40;;;17.10;99.90;;;;;;5117003;28;20035;-72
2023/06/23 00:44:30;;;;;;;0.60;0.60;;;17.10;99.90;;;;;;5117448;28;20466;-72
2023/06/23 00:46:56;;;;;;;0.40;0.40;;;17.00;99.90;;;;;;5117338;28;20083;-71
2023/06/23 00:49:21;;;;;;;0.40;0.40;;;17.00;99.90;;;;;;5117025;28;20039;-72
2023/06/23 00:51:47;;;;;;;0.40;0.40;;;17.00;99.90;;;;;;5116841;28;20119;-71
2023/06/23 00:54:13;;;;;;;0.40;0.40;;;17.00;99.90;;;;;;5116655;28;20039;-72
2023/06/23 00:56:39;;;;;;;0.32;0.32;;;17.00;99.90;;;;;;5116969;28;20039;-72
2023/06/23 00:59:05;;;;;;;0.30;0.30;;;17.00;99.90;;;;;;5116741;28;20046;-72
2023/06/23 01:01:31;;;;;;;0.40;0.40;;;17.00;99.90;;;;;;5116345;28;20378;-72
2023/06/23 01:04:00;;;;;;;0.40;0.40;;;17.00;99.90;;;;;;5116624;28;20519;-72
2023/06/23 01:06:57;;;;;;;0.40;0.40;;;16.90;99.90;;;;;;5116687;28;20057;-72
2023/06/23 01:09:49;;;;;;;0.40;0.40;;;16.90;99.90;;;;;;5116525;28;20176;-71
2023/06/23 01:12:26;;;;;;;0.40;0.40;;;16.90;99.90;;;;;;5116590;28;20047;-72
2023/06/23 01:15:17;;;;;;;0.40;0.40;;;16.90;99.90;;;;;;5116618;28;20050;-72
2023/06/23 01:17:49;;;;;;;0.63;0.60;;;16.90;99.90;;;;;;5109454;28;20050;-72
2023/06/23 01:20:25;;;;;;;0.55;0.55;;;16.90;99.90;;;;;;5116296;28;20042;-72
2023/06/23 01:23:21;;;;;;;0.40;0.40;;;16.90;99.90;;;;;;5115305;28;20496;-71
2023/06/23 01:25:54;;;;;;;0.38;0.38;;;16.90;99.90;;;;;;5115973;28;20084;-72
2023/06/23 01:28:45;;;;;;;0.40;0.40;;;16.90;99.90;;;;;;5115223;28;20039;-72
2023/06/23 01:31:15;;;;;;;0.40;0.40;;;16.90;99.90;;;;;;5116084;28;20046;-72
2023/06/23 01:33:48;;;;;;;0.30;0.30;;;16.90;99.90;;;;;;5116059;28;20085;-72
2023/06/23 01:36:27;;;;;;;0.50;0.50;;;16.90;99.90;;;;;;5115044;27;20085;-71
2023/06/23 01:38:57;;;;;;;0.40;0.40;;;16.90;99.90;;;;;;5115932;28;20081;-71
2023/06/23 01:41:26;;;;;;;0.30;0.30;;;16.90;99.90;;;;;;5115774;28;20039;-71
2023/06/23 01:43:55;;;;;;;0.60;0.60;;;16.90;99.90;;;;;;5115804;28;20043;-71
2023/06/23 01:46:25;;;;;;;0.40;0.40;;;17.00;99.90;;;;;;5115577;28;20031;-71
2023/06/23 01:48:56;;;;;;;0.40;0.40;;;17.00;99.90;;;;;;5116177;28;20153;-71
2023/06/23 01:51:25;;;;;;;0.40;0.40;;;17.00;99.90;;;;;;5115710;28;20047;-71
2023/06/23 01:53:51;;;;;;;0.50;0.50;;;16.90;99.90;;;;;;5115942;28;20036;-71
2023/06/23 01:56:18;;;;;;;;;;;16.90;99.90;;;;;;5115955;28;20055;-71
2023/06/23 01:58:44;;;;;;;0.30;0.30;;;16.90;99.90;;;;;;5115629;28;20323;-72
2023/06/23 02:01:11;;;;;;;0.40;0.40;;;16.90;99.90;;;;;;5114174;28;20126;-71
2023/06/23 02:03:39;;;;;;;0.40;0.40;;;17.00;99.90;;;;;;5114230;28;20089;-71
2023/06/23 02:06:06;;;;;;;0.60;0.60;;;16.90;99.90;;;;;;5115526;28;20085;-71
2023/06/23 02:08:34;;;;;;;0.38;0.38;;;17.00;99.90;;;;;;5115293;28;20051;-71
2023/06/23 02:11:01;;;;;;;0.40;0.40;;;17.00;99.90;;;;;;5115322;28;20042;-71
2023/06/23 02:13:29;;;;;;;0.40;0.40;;;16.90;99.90;;;;;;5115223;28;20078;-71
2023/06/23 02:15:56;;;;;;;0.40;0.40;;;17.00;99.90;;;;;;5115049;28;20082;-71
2023/06/23 02:18:24;;;;;;;0.40;0.40;;;17.00;99.90;;;;;;5115734;28;20039;-71
2023/06/23 02:20:51;;;;;;;0.40;0.40;;;16.90;99.90;;;;;;5115445;28;20118;-71
2023/06/23 02:23:19;;;;;;;0.40;0.40;;;17.00;99.90;;;;;;5115011;28;20035;-71
2023/06/23 02:25:45;;;;;;;0.40;0.40;;;16.90;99.90;;;;;;5114766;28;20035;-72
2023/06/23 02:28:12;;;;;;;0.40;0.40;;;17.00;99.90;;;;;;5115005;27;20131;-71
2023/06/23 02:30:39;;;;;;;0.40;0.40;;;17.00;99.90;;;;;;5114862;28;20058;-72
2023/06/23 02:33:05;;;;;;;0.40;0.40;;;17.00;99.90;;;;;;5114842;28;20043;-71
2023/06/23 02:35:33;;;;;;;0.40;0.40;;;16.90;99.90;;;;;;5115163;28;20086;-72
2023/06/23 02:38:02;;;;;;;0.40;0.40;;;16.90;99.90;;;;;;5114716;28;20771;-72
2023/06/23 02:40:31;;;;;;;0.40;0.40;;;16.90;99.90;;;;;;5114750;28;20039;-72
2023/06/23 02:43:10;;;;;;;0.30;0.30;;;16.90;99.90;;;;;;5114606;28;20043;-71
2023/06/23 02:45:41;;;;;;;0.30;0.30;;;16.90;99.90;;;;;;5115021;28;20400;-71
2023/06/23 02:48:15;;;;;;;0.40;0.40;;;16.90;99.90;;;;;;5112491;28;20043;-72
2023/06/23 02:50:43;;;;;;;0.40;0.40;;;16.90;99.90;;;;;;5114912;28;20391;-72
2023/06/23 02:53:11;;;;;;;0.32;0.32;;;16.80;99.90;;;;;;5114443;28;20499;-71
2023/06/23 02:55:40;;;;;;;0.32;0.32;;;16.90;99.90;;;;;;5114340;28;20122;-71
2023/06/23 02:58:12;;;;;;;0.52;0.52;;;16.80;99.90;;;;;;5114439;28;20039;-72
2023/06/23 03:00:38;;;;;;;0.40;0.40;;;16.80;99.90;;;;;;5114449;28;20375;-71
2023/06/23 03:03:09;;;;;;;0.40;0.40;;;16.90;99.90;;;;;;5114368;28;20042;-71
2023/06/23 03:05:35;;;;;;;0.40;0.40;;;16.80;99.90;;;;;;5114076;28;20371;-71
2023/06/23 03:08:01;;;;;;;0.30;0.30;;;16.80;99.90;;;;;;5114168;28;20047;-71
2023/06/23 03:10:28;;;;;;;0.30;0.30;;;16.80;99.90;;;;;;5114174;28;20114;-71
2023/06/23 03:12:53;;;;;;;;;;;16.80;99.90;;;;;;5114644;28;20043;-70
2023/06/23 03:15:19;;;;;;;0.30;0.30;;;16.80;99.90;;;;;;5114146;28;20365;-70
2023/06/23 03:17:48;;;;;;;0.40;0.40;;;16.80;99.90;;;;;;5114425;28;20554;-71
2023/06/23 03:20:22;;;;;;;0.30;0.30;;;16.80;99.90;;;;;;5114102;28;20088;-73
2023/06/23 03:22:54;;;;;;;0.30;0.30;;;16.80;99.90;;;;;;5114013;28;20558;-71
2023/06/23 03:25:27;;;;;;;0.40;0.40;;;16.80;99.90;;;;;;5114044;28;20057;-71
2023/06/23 03:28:02;;;;;;;0.40;0.40;;;16.80;99.90;;;;;;5114060;28;20035;-72
2023/06/23 03:30:40;;;;;;;0.30;0.30;;;16.90;99.90;;;;;;5113981;28;20494;-72
2023/06/23 03:33:14;;;;;;;0.38;0.38;;;16.80;99.90;;;;;;5113835;28;20040;-71
2023/06/23 03:35:46;;;;;;;0.30;0.30;;;16.90;99.90;;;;;;5113999;28;20126;-71
2023/06/23 03:38:17;;;;;;;0.30;0.30;;;16.80;99.90;;;;;;5113927;28;20040;-72
2023/06/23 03:40:47;;;;;;;0.40;0.40;;;16.80;99.90;;;;;;5114060;28;20221;-71
2023/06/23 03:43:22;;;;;;;0.40;0.40;;;16.80;99.90;;;;;;5114069;28;20048;-71
2023/06/23 03:45:53;;;;;;;0.38;0.38;;;16.80;99.90;;;;;;5113724;28;20040;-71
2023/06/23 03:48:21;;;;;;;0.40;0.40;;;16.80;99.90;;;;;;5112689;28;20040;-71
2023/06/23 03:50:51;;;;;;;0.40;0.40;;;16.80;99.90;;;;;;5114104;28;20118;-71
2023/06/23 03:53:19;;;;;;;0.30;0.30;;;16.80;99.90;;;;;;5113568;28;20048;-72
2023/06/23 03:55:46;;;;;;;0.40;0.40;;;16.80;99.90;;;;;;5113757;28;20062;-71
2023/06/23 03:58:14;;;;;;;0.30;0.30;;;16.80;99.90;;;;;;5113846;28;20531;-71
2023/06/23 04:00:41;;;;;;;0.40;0.40;;;16.80;99.90;;;;;;5117805;28;20043;-71
2023/06/23 04:03:08;;;;;;;0.35;0.35;;;16.70;99.90;;;;;;5117760;28;20044;-71
2023/06/23 04:05:36;;;;;;;0.40;0.40;;;16.80;99.90;;;;;;5117737;28;20203;-71
2023/06/23 04:08:03;;;;;;;0.40;0.40;;;16.80;99.90;;;;;;5117755;28;20365;-71
2023/06/23 04:10:29;;;;;;;;;;;16.70;99.90;;;;;;5118017;28;20044;-71
2023/06/23 04:12:57;;;;;;;0.75;0.73;;;16.70;99.90;;;;;;5117555;28;19937;-71
2023/06/23 04:15:24;;;;;;;0.40;0.40;;;16.60;99.90;;;;;;5117569;28;20412;-71
2023/06/23 04:17:53;;;;;;;0.30;0.30;;;16.80;99.90;;;;;;5117591;27;20046;-72
2023/06/23 04:20:20;;;;;;;0.30;0.30;;;16.80;99.90;;;;;;5117441;28;20131;-72
2023/06/23 04:22:49;;;;;;;0.50;0.50;;;16.70;99.90;;;;;;5117412;28;20043;-71
2023/06/23 04:25:18;;;;;;;0.32;0.32;;;16.80;99.90;;;;;;5117378;28;20082;-71
2023/06/23 04:27:47;;;;;;;0.30;0.30;;;16.70;99.90;;;;;;5117313;27;20047;-71
2023/06/23 04:30:15;;;;;;;0.30;0.30;;;16.70;99.90;;;;;;5117023;28;20031;-71
2023/06/23 04:32:42;;;;;;;0.40;0.40;;;16.80;99.90;;;;;;5117489;28;20035;-71
2023/06/23 04:35:08;;;;;;;0.40;0.40;;;16.80;99.90;;;;;;5117337;28;20064;-71
2023/06/23 04:38:11;;;;;;;0.40;0.40;;;16.90;99.90;;;;;;5117164;28;20141;-71
2023/06/23 04:40:51;;;;;;;0.40;0.40;;;16.90;99.90;;;;;;5053948;28;20061;-71
2023/06/23 04:43:23;;;;;;;0.30;0.30;;;16.90;99.90;;;;;;5111498;28;20058;-71
2023/06/23 04:45:58;;;;;;;0.40;0.40;;;17.00;99.90;;;;;;5117045;28;20057;-71
2023/06/23 04:48:28;;;;;;;0.40;0.40;;;17.00;99.90;;;;;;5116935;28;20032;-71
2023/06/23 04:50:58;;;;;;;0.40;0.40;;;17.10;99.90;;;;;;5116958;28;20044;-72
2023/06/23 04:53:30;;;;;;;0.40;0.40;;;17.10;99.90;;;;;;5117072;28;20047;-71
2023/06/23 04:56:01;;;;;;;0.30;0.30;;;17.10;99.90;;;;;;5116865;28;20357;-72
2023/06/23 04:58:32;;;;;;;0.40;0.40;;;17.10;99.90;;;;;;5116775;28;20090;-72
2023/06/23 05:00:59;;;;;;;0.40;0.40;;;17.20;99.90;;;;;;5116763;28;20063;-72
2023/06/23 05:03:27;;;;;;;0.30;0.30;;;17.20;99.90;;;;;;5116645;28;20051;-72
2023/06/23 05:05:56;;;;;;;0.40;0.40;;;17.20;99.90;;;;;;5116169;28;20091;-71
2023/06/23 05:08:25;;;;;;;0.40;0.40;;;17.20;99.90;;;;;;5116398;28;20482;-71
2023/06/23 05:10:52;;;;;;;0.70;0.70;;;17.20;99.90;;;;;;5115405;27;20479;-71
2023/06/23 05:13:19;;;;;;;;;;;17.20;99.90;;;;;;5116781;28;20045;-72
2023/06/23 05:15:47;;;;;;;0.30;0.30;;;17.20;99.90;;;;;;5116333;28;20004;-71
2023/06/23 05:18:16;;;;;;;0.40;0.40;;;17.20;99.90;;;;;;5115554;28;20048;-72
2023/06/23 05:20:44;;;;;;;0.40;0.40;;;17.20;99.90;;;;;;5115319;28;20059;-71
2023/06/23 05:23:12;;;;;;;0.40;0.40;;;17.20;99.90;;;;;;5116530;28;20429;-71
2023/06/23 05:25:38;;;;;;;0.40;0.40;;;17.20;99.90;;;;;;5116112;28;20035;-72
2023/06/23 05:28:05;;;;;;;0.40;0.40;;;17.30;99.90;;;;;;5116110;28;20122;-71
2023/06/23 05:30:34;;;;;;;0.60;0.60;;;17.30;99.90;;;;;;5115870;28;20481;-71
2023/06/23 05:33:01;;;;;;;0.30;0.30;;;17.30;99.90;;;;;;5116200;28;20047;-71
2023/06/23 05:35:28;;;;;;;0.30;0.30;;;17.30;99.90;;;;;;5116430;28;20039;-71
2023/06/23 05:37:56;;;;;;;0.30;0.30;;;17.30;99.90;;;;;;5116172;28;20084;-72
2023/06/23 05:40:22;;;;;;;0.68;0.68;;;17.40;99.90;;;;;;5115852;28;20140;-72
2023/06/23 05:42:47;;;;;;;0.40;0.40;;;17.40;99.90;;;;;;5115811;28;20451;-71
2023/06/23 05:45:13;;;;;;;0.40;0.40;;;17.40;99.90;;;;;;5115752;28;20052;-71
2023/06/23 05:48:04;;;;;;;0.40;0.40;;;17.40;99.90;;;;;;5115679;28;20035;-71
2023/06/23 05:50:37;;;;;;;0.40;0.40;;;17.50;99.90;;;;;;5115739;28;20036;-71
2023/06/23 05:53:20;;;;;;;0.38;0.38;;;17.50;99.90;;;;;;5115670;28;20036;-71
2023/06/23 05:55:51;;;;;;;0.40;0.40;;;17.50;99.90;;;;;;5115523;28;20043;-71
2023/06/23 05:58:18;;;;;;;0.30;0.30;;;17.50;99.90;;;;;;5115730;28;20074;-71
2023/06/23 06:00:51;;;;;;;0.40;0.40;;;17.50;99.90;;;;;;5114227;28;20357;-71
2023/06/23 06:03:21;;;;;;;0.30;0.30;;;17.50;99.90;;;;;;5115654;28;20047;-71
2023/06/23 06:05:52;;;;;;;0.30;0.30;;;17.50;99.90;;;;;;5115321;28;20048;-71
2023/06/23 06:08:20;;;;;;;0.30;0.30;;;17.50;99.90;;;;;;5114743;28;20043;-71
2023/06/23 06:10:46;;;;;;;0.30;0.30;;;17.60;99.90;;;;;;5115259;28;20046;-71
2023/06/23 06:13:14;;;;;;;0.40;0.40;;;17.60;99.90;;;;;;5115559;27;20040;-71
2023/06/23 06:15:41;;;;;;;0.32;0.32;;;17.60;99.90;;;;;;5115259;28;20041;-71
2023/06/23 06:18:11;;;;;;;0.40;0.40;;;17.70;99.90;;;;;;5115140;28;20071;-71
2023/06/23 06:20:40;;;;;;;0.40;0.40;;;17.70;99.90;;;;;;5115072;28;20036;-71
2023/06/23 06:23:06;;;;;;;0.40;0.40;;;17.70;99.90;;;;;;5114594;28;20387;-70
2023/06/23 06:25:33;;;;;;;;;;;17.80;99.90;;;;;;5115505;28;20042;-71
2023/06/23 06:28:00;;;;;;;0.50;0.50;;;17.80;99.90;;;;;;5115044;28;20259;-71
2023/06/23 06:30:26;;;;;;;1.15;1.05;;;17.70;99.90;;;;;;5113797;28;20047;-71
2023/06/23 06:32:54;;;;;;;0.30;0.30;;;17.80;99.90;;;;;;5114824;28;20043;-70
2023/06/23 06:35:22;;;;;;;0.70;0.70;;;17.80;99.90;;;;;;5114781;27;20104;-70
2023/06/23 06:37:50;;;;;;;0.50;0.50;;;17.80;99.90;;;;;;5114759;28;20053;-70
2023/06/23 06:40:22;;;;;;;0.40;0.40;;;17.80;99.90;;;;;;5114666;28;20039;-71
2023/06/23 06:42:47;;;;;;;0.30;0.30;;;17.80;99.90;;;;;;5114777;28;20441;-71
2023/06/23 06:45:13;;;;;;;0.40;0.40;;;17.80;99.90;;;;;;5114531;28;20069;-71
2023/06/23 06:47:43;;;;;;;0.30;0.30;;;17.80;99.90;;;;;;5114539;28;20502;-71
2023/06/23 06:50:12;;;;;;;0.30;0.30;;;17.80;99.90;;;;;;5114538;28;20085;-71
2023/06/23 06:52:39;;;;;;;0.50;0.50;;;17.80;99.90;;;;;;5114484;28;20043;-71
2023/06/23 06:55:05;;;;;;;0.30;0.30;;;17.90;99.90;;;;;;5114467;28;20047;-71
2023/06/23 06:57:33;;;;;;;0.40;0.40;;;18.00;99.90;;;;;;5114617;28;20039;-71
2023/06/23 06:59:58;;;;;;;0.40;0.40;;;18.20;99.90;;;;;;5114331;28;20456;-71
2023/06/23 07:02:24;;;;;;;0.43;0.43;;;18.40;99.90;;;;;;5114306;28;20045;-71
2023/06/23 07:04:51;;;;;;;0.40;0.40;;;18.60;99.90;;;;;;5114042;28;20078;-71
2023/06/23 07:07:17;;;;;;;0.40;0.40;;;18.90;99.90;;;;;;5114667;28;20126;-71
2023/06/23 07:09:42;;;;;;;0.30;0.30;;;19.10;99.90;;;;;;5114214;28;20493;-71
2023/06/23 07:12:08;;;;;;;0.30;0.30;;;19.30;99.90;;;;;;5114243;28;20047;-71
2023/06/23 07:14:36;;;;;;;0.30;0.30;;;19.50;99.90;;;;;;5114344;28;20479;-71
2023/06/23 07:17:01;;;;;;;0.30;0.30;;;19.70;99.90;;;;;;5114074;28;20534;-72
2023/06/23 07:19:27;;;;;;;0.40;0.40;;;19.80;99.90;;;;;;5114211;28;20141;-72
2023/06/23 07:21:53;;;;;;;0.47;0.47;;;20.10;99.90;;;;;;5114477;28;20092;-71
2023/06/23 07:24:18;;;;;;;0.53;0.53;;;20.30;99.90;;;;;;5114082;28;20036;-72
2023/06/23 07:26:44;;;;;;;0.30;0.30;;;20.40;99.90;;;;;;5113692;28;20040;-71
2023/06/23 07:29:10;;;;;;;0.30;0.30;;;20.60;99.90;;;;;;5113968;28;20042;-71
2023/06/23 07:31:37;;;;;;;0.30;0.30;;;20.80;99.90;;;;;;5113948;28;20079;-72
2023/06/23 07:34:03;;;;;;;0.40;0.40;;;20.90;99.90;;;;;;5118168;28;20420;-72
2023/06/23 07:36:28;;;;;;;0.30;0.30;;;21.00;99.90;;;;;;5120859;27;20074;-71
2023/06/23 07:38:54;;;;;;;0.40;0.40;;;21.20;99.90;;;;;;5120799;28;20043;-71
2023/06/23 07:41:19;;;;;;;0.30;0.30;;;21.20;99.90;;;;;;5120555;28;20040;-71
2023/06/23 07:43:45;;;;;;;0.30;0.30;;;21.30;99.90;;;;;;5120703;28;20043;-72
2023/06/23 07:46:11;;;;;;;0.30;0.30;;;21.40;99.90;;;;;;5120952;28;20043;-71
2023/06/23 07:48:37;;;;;;;0.40;0.40;;;21.40;99.90;;;;;;5120690;28;20115;-72
2023/06/23 07:51:02;;;;;;;0.30;0.30;;;21.40;99.90;;;;;;5120987;27;20119;-72
2023/06/23 07:53:28;;;;;;;0.30;0.30;;;21.50;99.90;;;;;;5120594;28;20315;-71
2023/06/23 07:55:54;;;;;;;0.30;0.30;;;21.60;99.90;;;;;;5119723;28;20434;-72
2023/06/23 07:58:19;;;;;;;0.60;0.60;;;21.70;99.90;;;;;;5120801;28;20043;-72
2023/06/23 08:00:46;;;;;;;0.93;0.93;;;21.80;99.90;;;;;;5120482;28;20467;-71
2023/06/23 08:03:12;;;;;;;0.30;0.30;;;21.90;99.90;;;;;;5120678;27;20074;-72
2023/06/23 08:05:38;;;;;;;0.30;0.30;;;22.10;99.90;;;;;;5120430;27;20048;-72
2023/06/23 08:08:04;;;;;;;0.30;0.30;;;22.20;99.90;;;;;;5120526;27;20092;-72
2023/06/23 08:10:30;;;;;;;0.30;0.30;;;22.30;99.90;;;;;;5120483;27;20032;-72
2023/06/23 08:12:55;;;;;;;0.40;0.40;;;22.40;99.90;;;;;;5119515;28;20058;-72
2023/06/23 08:15:21;;;;;;;0.30;0.30;;;22.50;99.90;;;;;;5120429;28;20075;-72
2023/06/23 08:17:48;;;;;;;0.30;0.30;;;22.60;99.90;;;;;;5120435;28;20114;-71
2023/06/23 08:20:14;;;;;;;0.57;0.57;;;22.70;99.90;;;;;;5120273;27;20497;-71
2023/06/23 08:22:40;;;;;;;0.57;0.50;;;22.70;99.90;;;;;;5120554;27;20118;-72
2023/06/23 08:25:07;;;;;;;0.30;0.30;;;22.70;99.90;;;;;;5120330;27;20043;-72
2023/06/23 08:27:32;;;;;;;;;;;22.80;99.90;;;;;;5120784;27;20046;-72
2023/06/23 08:29:58;;;;;;;0.40;0.40;;;22.80;99.90;;;;;;5120321;28;19916;-72
2023/06/23 08:32:23;;;;;;;0.50;0.50;;;22.90;99.90;;;;;;5119930;28;20031;-71
2023/06/23 08:34:49;;;;;;;0.30;0.30;;;23.00;99.90;;;;;;5119424;28;20039;-72
2023/06/23 08:37:15;;;;;;;0.30;0.30;;;23.10;99.90;;;;;;5120573;28;20364;-72
2023/06/23 08:39:41;;;;;;;0.30;0.30;;;23.00;99.90;;;;;;5120436;28;20042;-72
2023/06/23 08:42:07;;;;;;;0.30;0.30;;;23.20;99.90;;;;;;5120291;27;20126;-71
2023/06/23 08:44:36;;;;;;;0.30;0.30;;;23.20;99.90;;;;;;5119264;27;20469;-72
2023/06/23 08:47:04;;;;;;;0.30;0.30;;;23.30;99.90;;;;;;5116972;28;20039;-72
2023/06/23 08:49:38;;;;;;;0.30;0.30;;;23.20;99.90;;;;;;5117125;28;20135;-71
2023/06/23 08:52:04;;;;;;;0.75;0.50;;;23.30;99.90;;;;;;5116937;28;20044;-72
2023/06/23 08:54:30;;;;;;;0.28;0.28;;;23.50;99.90;;;;;;5116790;28;20036;-72
2023/06/23 08:56:57;;;;;;;0.30;0.30;;;23.60;99.90;;;;;;5116839;28;20066;-72
2023/06/23 08:59:22;;;;;;;;;;;23.60;99.90;;;;;;5116988;28;20043;-73
2023/06/23 09:01:48;;;;;;;0.20;0.20;;;23.70;99.90;;;;;;5116674;28;19916;-72
2023/06/23 09:04:14;;;;;;;0.30;0.30;;;23.80;99.90;;;;;;5116940;28;20036;-72
2023/06/23 09:06:40;;;;;;;;;;;23.80;99.90;;;;;;5116944;28;20040;-73
2023/06/23 09:09:06;;;;;;;0.30;0.30;;;23.70;99.90;;;;;;5116689;28;19973;-72
2023/06/23 09:11:32;;;;;;;0.40;0.40;;;23.80;99.90;;;;;;5116525;28;20032;-72
2023/06/23 09:14:00;;;;;;;0.40;0.40;;;23.80;99.90;;;;;;5116459;28;20277;-72
2023/06/23 09:16:27;;;;;;;0.40;0.40;;;23.80;99.90;;;;;;5116369;28;20475;-72
2023/06/23 09:18:53;;;;;;;0.40;0.40;;;24.00;99.90;;;;;;5116381;28;20036;-72
2023/06/23 09:21:20;;;;;;;0.53;0.53;;;24.10;99.90;;;;;;5116328;28;20035;-72
2023/06/23 09:24:03;;;;;;;1.85;0.85;;;24.20;99.90;;;;;;5116225;28;20046;-73
2023/06/23 09:26:54;;;;;;;0.30;0.30;;;24.30;99.90;;;;;;5116398;28;20394;-72
2023/06/23 09:29:26;;;;;;;0.30;0.30;;;24.40;99.90;;;;;;5116186;28;20092;-72
2023/06/23 09:31:53;;;;;;;0.40;0.40;;;24.40;99.90;;;;;;5116270;28;20421;-72
2023/06/23 09:34:24;;;;;;;0.40;0.40;;;24.30;99.90;;;;;;5115960;28;20096;-72
2023/06/23 09:36:52;;;;;;;0.95;0.95;;;24.30;99.90;;;;;;5115995;28;20047;-72
2023/06/23 09:39:18;;;;;;;0.20;0.20;;;24.40;99.90;;;;;;5115858;28;20039;-72
2023/06/23 09:41:55;;;;;;;0.30;0.30;;;24.40;99.90;;;;;;5115912;28;20031;-72
2023/06/23 09:44:21;;;;;;;;;;;24.60;99.90;;;;;;5116668;28;20048;-71
2023/06/23 09:46:46;;;;;;;1.10;0.40;;;24.70;99.90;;;;;;5115523;28;19920;-72
2023/06/23 09:49:12;;;;;;;0.30;0.30;;;24.80;99.90;;;;;;5115834;28;20075;-72
2023/06/23 09:51:45;;;;;;;0.20;0.20;;;24.90;99.90;;;;;;5115629;28;20043;-72
2023/06/23 09:54:11;;;;;;;0.30;0.30;;;25.00;99.90;;;;;;5116095;28;20042;-72
2023/06/23 09:56:36;;;;;;;0.47;0.40;;;25.10;99.90;;;;;;5115090;28;20363;-72
2023/06/23 09:59:02;;;;;;;0.20;0.20;;;25.10;99.90;;;;;;5115664;28;20035;-72
2023/06/23 10:01:28;;;;;;;0.30;0.30;;;25.10;99.90;;;;;;5115486;28;20038;-72
2023/06/23 10:03:55;;;;;;;0.60;0.60;;;25.20;99.90;;;;;;5115506;28;20289;-72
2023/06/23 10:06:23;;;;;;;0.20;0.20;;;25.20;99.90;;;;;;5115853;28;20479;-72
2023/06/23 10:08:53;;;;;;;0.75;0.75;;;25.30;99.90;;;;;;5114165;28;20043;-72
2023/06/23 10:11:18;;;;;;;0.30;0.30;;;25.10;99.90;;;;;;5115315;28;20051;-72
2023/06/23 10:13:46;;;;;;;0.30;0.30;;;25.30;99.90;;;;;;5115214;28;20392;-72
2023/06/23 10:16:12;;;;;;;0.30;0.30;;;25.40;99.90;;;;;;5115176;28;20044;-72
2023/06/23 10:18:38;;;;;;;0.60;0.43;;;25.60;99.90;;;;;;5113986;28;20092;-71
2023/06/23 10:21:04;;;;;;;0.37;0.37;;;25.70;99.90;;;;;;5114790;28;20047;-72
2023/06/23 10:23:31;;;;;;;0.30;0.30;;;25.80;99.90;;;;;;5113919;28;20044;-72
2023/06/23 10:25:59;;;;;;;0.22;0.22;;;25.80;99.90;;;;;;5114894;28;20075;-72
2023/06/23 10:28:28;;;;;;;0.40;0.40;;;25.90;99.90;;;;;;5114773;28;20036;-71
2023/06/23 10:30:54;;;;;;;0.30;0.30;;;26.00;99.90;;;;;;5114915;28;20043;-72
2023/06/23 10:33:21;;;;;;;0.38;0.38;;;26.10;99.90;;;;;;5114782;28;20109;-72
2023/06/23 10:35:48;;;;;;;0.40;0.40;;;26.20;99.90;;;;;;5114875;28;20028;-72
2023/06/23 10:38:21;;;;;;;0.60;0.60;;;26.10;99.90;;;;;;5114768;28;20131;-72
2023/06/23 10:40:51;;;;;;;0.30;0.30;;;26.30;99.90;;;;;;5114893;28;20075;-72
2023/06/23 10:43:19;;;;;;;0.30;0.30;;;26.40;99.90;;;;;;5113507;28;20069;-72
2023/06/23 10:45:45;;;;;;;0.20;0.20;;;26.50;99.90;;;;;;5114571;28;20039;-72
2023/06/23 10:48:11;;;;;;;0.30;0.30;;;26.50;99.90;;;;;;5114513;28;20043;-72
2023/06/23 10:50:39;;;;;;;0.50;0.50;;;26.50;99.90;;;;;;5114550;28;20032;-72
2023/06/23 10:53:16;;;;;;;0.30;0.30;;;26.40;99.90;;;;;;5114476;28;20047;-72
2023/06/23 10:55:47;;;;;;;0.57;0.40;;;26.30;99.90;;;;;;5114331;28;20118;-72
2023/06/23 10:58:16;;;;;;;0.25;0.25;;;26.30;99.90;;;;;;5115037;28;20036;-72
2023/06/23 11:01:00;;;;;;;0.40;0.40;;;26.30;99.90;;;;;;5114294;28;20434;-72
2023/06/23 11:03:34;;;;;;;0.47;0.40;;;26.10;99.90;;;;;;5114342;28;20135;-72
2023/06/23 11:06:04;;;;;;;0.30;0.30;;;26.00;99.90;;;;;;5114235;28;20051;-72
2023/06/23 11:08:40;;;;;;;0.40;0.40;;;26.00;99.90;;;;;;5113446;28;20126;-72
2023/06/23 11:11:10;;;;;;;0.30;0.30;;;26.00;99.90;;;;;;5114238;28;20135;-72
2023/06/23 11:13:41;;;;;;;0.30;0.30;;;25.90;99.90;;;;;;5114691;28;20074;-72
2023/06/23 11:16:26;;;;;;;0.30;0.30;;;26.10;99.90;;;;;;5113981;28;20510;-72
2023/06/23 11:18:53;;;;;;;0.30;0.30;;;26.10;99.90;;;;;;5114093;28;20050;-72
2023/06/23 11:21:25;;;;;;;0.20;0.20;;;26.10;99.90;;;;;;5112948;28;20042;-72
2023/06/23 11:24:10;;;;;;;0.20;0.20;;;26.30;99.90;;;;;;5113072;28;20052;-72
2023/06/23 11:26:36;;;;;;;0.30;0.30;;;26.40;99.90;;;;;;5113753;28;20476;-72
2023/06/23 11:29:10;;;;;;;0.30;0.30;;;26.50;99.90;;;;;;5114015;28;20040;-72
2023/06/23 11:31:55;;;;;;;0.30;0.30;;;26.50;99.90;;;;;;5113939;28;20043;-71
2023/06/23 11:34:23;;;;;;;0.22;0.22;;;26.60;99.90;;;;;;5114587;28;20035;-72
2023/06/23 11:36:49;;;;;;;0.30;0.30;;;26.70;99.90;;;;;;5114261;28;20349;-72
2023/06/23 11:39:15;;;;;;;0.30;0.30;;;26.80;99.90;;;;;;5113702;28;20482;-72
2023/06/23 11:41:43;;;;;;;0.20;0.20;;;26.80;99.90;;;;;;5113766;28;20130;-72
2023/06/23 11:44:10;;;;;;;0.20;0.20;;;26.90;99.90;;;;;;5113853;28;20088;-72
2023/06/23 11:46:36;;;;;;;0.35;0.35;;;27.00;99.90;;;;;;5113465;28;20434;-71
2023/06/23 11:49:10;;;;;;;0.70;0.50;;;27.00;99.90;;;;;;5114225;28;20142;-73
2023/06/23 11:51:35;;;;;;;0.52;0.52;;;26.80;99.90;;;;;;5113943;28;20144;-72
2023/06/23 11:54:01;;;;;;;0.30;0.30;;;27.00;99.90;;;;;;5113791;28;20047;-71
2023/06/23 11:56:27;;;;;;;0.50;0.50;;;27.10;99.90;;;;;;5113745;28;20042;-72
2023/06/23 11:58:56;;;;;;;0.20;0.20;;;27.40;99.90;;;;;;5113738;28;20032;-72
2023/06/23 12:01:23;;;;;;;0.20;0.20;;;27.30;99.90;;;;;;5113578;28;20467;-72
2023/06/23 12:03:49;;;;;;;0.30;0.30;;;27.30;99.90;;;;;;5113731;28;20042;-72
2023/06/23 12:06:17;;;;;;;0.30;0.30;;;27.30;99.90;;;;;;5114112;28;20467;-73
2023/06/23 12:08:44;;;;;;;0.57;0.47;;;27.40;99.90;;;;;;5113866;28;20118;-72
2023/06/23 12:11:09;;;;;;;0.30;0.30;;;27.40;99.70;;;;;;5113605;28;20119;-72
2023/06/23 12:13:38;;;;;;;0.30;0.30;;;27.40;99.60;;;;;;5113560;28;20134;-72
2023/06/23 12:16:07;;;;;;;0.30;0.30;;;27.30;99.00;;;;;;5113967;28;20380;-72
2023/06/23 12:18:41;;;;;;;0.30;0.30;;;27.30;99.90;;;;;;5113539;28;20043;-72
2023/06/23 12:21:07;;;;;;;0.30;0.30;;;27.00;99.50;;;;;;5116871;28;20086;-72
2023/06/23 12:23:33;;;;;;;0.30;0.30;;;27.10;99.90;;;;;;5117490;28;20428;-72
2023/06/23 12:25:58;;;;;;;0.30;0.30;;;27.30;99.50;;;;;;5117431;28;20057;-72
2023/06/23 12:28:28;;;;;;;0.20;0.20;;;27.40;98.00;;;;;;5117205;28;20039;-72
2023/06/23 12:30:54;;;;;;;0.22;0.22;;;27.40;98.00;;;;;;5117649;28;20360;-72
2023/06/23 12:33:24;;;;;;;0.20;0.20;;;27.40;99.50;;;;;;5117205;28;20444;-72
2023/06/23 12:36:04;;;;;;;0.30;0.30;;;27.60;98.40;;;;;;5117193;28;20042;-72
2023/06/23 12:38:34;;;;;;;0.20;0.20;;;27.50;97.20;;;;;;5117251;28;20471;-73
2023/06/23 12:41:26;;;;;;;0.30;0.30;;;27.60;97.90;;;;;;5117054;28;20039;-72
2023/06/23 12:44:01;;;;;;;0.20;0.20;;;27.60;98.10;;;;;;5117324;27;20035;-72
2023/06/23 12:46:28;;;;;;;0.35;0.35;;;27.60;96.70;;;;;;5116570;28;20047;-72
2023/06/23 12:48:54;;;;;;;0.32;0.32;;;27.60;97.10;;;;;;5116965;28;20036;-72
2023/06/23 12:51:36;;;;;;;0.20;0.20;;;27.60;97.60;;;;;;5116909;28;20180;-72
2023/06/23 12:54:04;;;;;;;0.40;0.40;;;27.50;97.90;;;;;;5117255;28;20046;-72
2023/06/23 12:56:30;;;;;;;0.20;0.20;;;27.60;97.90;;;;;;5116801;28;20040;-71